ftp/pub/mcmurdo/arrivalheights/2008/March/080306.txt
3/6/08
Time Wind Dir Wind Spd Wind Gust Hum In Humidity Temp In Temp Raw Barom Tot Rain
° kts kts % % °C °C mb mm
0:00 44 13 16 29 100 19.8 -11.1 969.23 0.00
0:20 52 7 15 32 100 20.0 -11.3 969.39 0.00
0:40 64 11 11 31 100 20.3 -10.6 969.23 0.00
1:00 53 8 10 24 100 20.6 -10.8 969.23 0.00
1:20 52 4 9 26 100 19.7 -11.1 969.23 0.00
1:40 37 3 7 31 100 19.8 -10.3 969.12 0.00
2:00 92 3 5 31 100 20.2 -10.6 968.99 0.00
2:20 54 2 3 25 100 20.7 -10.9 968.75 0.00
2:40 68 5 5 25 100 19.8 -11.2 969.02 0.00
3:00 81 5 5 30 100 19.8 -11.0 968.82 0.00
3:20 111 5 6 31 100 20.2 -10.5 968.89 0.00
3:40 108 4 6 25 100 20.6 -10.2 968.62 0.00
4:00 83 4 4 25 100 19.8 -10.2 968.89 0.00
4:20 113 5 7 31 100 19.8 -10.3 968.89 0.00
4:40 90 4 6 31 100 20.2 -10.1 968.92 0.00
5:00 77 7 8 24 100 20.6 -10.6 968.68 0.00
5:20 48 10 10 26 100 19.7 -10.8 968.82 0.00
5:40 50 9 10 31 100 19.9 -11.1 968.78 0.00
6:00 46 11 11 33 100 20.1 -10.9 968.78 0.00
6:20 48 10 10 27 100 20.7 -10.8 968.75 0.00
6:40 45 10 11 23 100 19.9 -10.9 968.78 0.00
7:00 45 9 10 29 100 19.8 -11.3 968.72 0.00
7:20 49 9 10 33 100 20.0 -11.3 968.68 0.00
7:40 49 10 10 27 100 20.5 -11.4 968.55 0.00
8:00 48 12 13 21 100 20.5 -11.3 968.45 0.00
8:20 46 11 12 27 100 19.8 -11.3 968.58 0.00
8:40 49 11 13 31 100 19.9 -11.4 968.51 0.00
9:00 47 14 15 33 100 20.1 -11.6 968.38 0.00
9:20 43 13 16 26 100 20.6 -11.7 968.41 0.00
9:40 42 10 15 23 100 20.2 -11.8 968.31 0.00
10:00 41 10 15 29 100 19.8 -11.9 968.51 0.00
10:20 37 13 14 32 100 20.1 -11.4 968.48 0.00
10:40 44 12 13 28 100 20.4 -11.3 968.45 0.00
11:00 38 10 15 22 100 20.6 -11.0 968.34 0.00
11:20 38 12 13 27 100 19.8 -11.0 968.55 0.00
11:40 38 10 13 31 100 19.9 -10.9 968.51 0.00
12:00 38 11 12 31 100 20.3 -11.3 968.55 0.00
12:20 39 9 12 25 100 20.6 -11.4 968.45 0.00
12:40 43 9 11 25 100 19.8 -11.5 968.58 0.00
13:00 36 11 11 31 100 19.9 -11.7 968.45 0.00
13:20 35 10 12 31 100 20.3 -11.3 968.45 0.00
13:40 39 9 10 25 100 20.7 -10.8 968.21 0.00
14:00 43 9 10 25 100 19.8 -10.4 968.45 0.00
14:20 39 9 10 31 100 19.9 -10.2 968.38 0.00
14:40 35 10 10 31 100 20.3 -10.6 968.31 0.00
15:00 29 6 9 24 100 20.6 -10.7 968.11 0.00
15:20 28 8 10 25 100 19.8 -11.2 968.31 0.00
15:40 24 8 10 31 100 19.9 -11.7 968.28 0.00
16:00 38 6 8 32 100 20.2 -10.7 968.21 0.00
16:20 39 5 6 25 100 20.6 -10.3 968.07 0.00
16:40 25 7 9 25 100 19.8 -10.8 968.07 0.00
17:00 45 3 3 31 100 19.9 -9.2 967.97 0.00
17:20 45 3 4 31 100 20.3 -9.0 967.84 0.00
17:40 12 3 5 24 100 20.6 -11.1 967.57 0.00
18:00 17 5 5 26 100 19.8 -10.8 967.84 0.00
18:20 19 4 6 31 100 19.9 -11.0 967.70 0.00
18:40 17 3 6 29 100 20.3 -11.6 967.67 0.00
19:00 24 4 6 24 100 20.7 -11.3 967.57 0.00
19:20 38 3 5 25 100 19.8 -10.6 967.70 0.00
19:40 22 7 7 31 100 19.9 -11.3 967.67 0.00
20:00 6 5 5 31 100 20.2 -12.2 967.74 0.00
20:20 9 7 8 26 100 20.8 -12.8 967.60 0.00
20:40 23 4 7 24 100 19.9 -13.4 967.77 0.00
21:00 38 7 8 30 100 19.9 -12.5 967.67 0.00
21:20 41 5 8 33 100 20.2 -10.6 967.80 0.00
21:40 16 6 9 26 100 20.7 -11.5 967.57 0.00
22:00 26 6 8 24 100 19.8 -13.6 967.77 0.00
22:20 7 9 9 30 100 19.8 -15.1 967.70 0.00
22:40 8 8 10 32 100 20.0 -14.3 967.60 0.00
23:00 5 8 10 27 100 20.4 -12.6 967.63 0.00
23:20 4 6 7 24 100 20.8 -10.7 967.50 0.00
23:40 359 3 3 24 100 19.9 -11.7 967.74 0.00


